Time;durP1;ratioP1;P1;durP2;ratioP2;P2;SDS_P1;SDS_P2;PMS_P1;PMS_P2;Temp;Humidity;BMP_temperature;BMP_pressure;BME280_temperature;BME280_humidity;BME280_pressure;Samples;Min_cycle;Max_cycle;Signal;HPM_P1;HPM_P2
2022/04/21 00:00:29;;;;;;;11.70;5.13;;;;;;;6.89;70.05;98244.78;5052261;28;20032;-65
2022/04/21 00:02:54;;;;;;;11.90;4.93;;;;;;;6.93;70.16;98235.31;5050329;28;20056;-65
2022/04/21 00:05:20;;;;;;;8.60;5.13;;;;;;;6.92;69.99;98242.56;5051530;28;20539;-65
2022/04/21 00:07:48;;;;;;;7.88;4.88;;;;;;;6.94;70.01;98227.06;5048291;28;20470;-65
2022/04/21 00:10:14;;;;;;;9.20;5.60;;;;;;;6.94;70.01;98229.75;5050190;28;20033;-65
2022/04/21 00:12:39;;;;;;;11.95;6.82;;;;;;;6.92;70.41;98234.50;5053084;28;20032;-65
2022/04/21 00:15:06;;;;;;;9.25;5.57;;;;;;;6.96;70.85;98229.56;5050277;28;20029;-65
2022/04/21 00:17:32;;;;;;;11.77;5.82;;;;;;;6.87;70.74;98233.41;5061102;28;20037;-65
2022/04/21 00:19:58;;;;;;;8.90;5.53;;;;;;;6.82;71.53;98239.38;5050225;28;20025;-65
2022/04/21 00:25:08;;;;;;;9.20;5.78;;;;;;;6.77;71.09;98231.88;5049295;28;20039;-65
2022/04/21 00:27:38;;;;;;;9.15;5.63;;;;;;;6.70;71.21;98216.72;5046037;28;20035;-65
2022/04/21 00:30:06;;;;;;;;;;;;;;;6.76;72.07;98230.22;5045001;28;20032;-65
2022/04/21 00:32:32;;;;;;;7.13;5.38;;;;;;;6.71;71.60;98218.38;5046833;28;19960;-65
2022/04/21 00:34:57;;;;;;;6.55;4.90;;;;;;;6.75;71.65;98228.53;5050021;28;20024;-65
2022/04/21 00:37:22;;;;;;;8.48;5.72;;;;;;;6.70;71.81;98230.97;5051028;28;20488;-65
2022/04/21 00:39:50;;;;;;;6.75;5.38;;;;;;;6.55;72.35;98219.47;5046729;28;20024;-65
2022/04/21 00:42:15;;;;;;;9.25;5.65;;;;;;;6.43;72.38;98221.84;5051288;28;20020;-66
2022/04/21 00:44:40;;;;;;;7.53;5.70;;;;;;;6.39;73.08;98222.41;5050098;28;20474;-65
2022/04/21 00:47:07;;;;;;;8.82;5.78;;;;;;;6.22;73.79;98184.22;5045662;28;20462;-65
2022/04/21 00:49:33;;;;;;;8.48;6.43;;;;;;;6.61;71.97;98209.81;5045368;28;20078;-65
2022/04/21 00:52:00;;;;;;;9.05;6.32;;;;;;;6.52;72.68;98201.03;5049309;28;20124;-65
2022/04/21 00:54:29;;;;;;;7.15;5.50;;;;;;;6.43;71.62;98191.44;5045332;28;20033;-65
2022/04/21 00:56:55;;;;;;;9.77;6.40;;;;;;;6.54;73.00;98221.31;5047437;28;20037;-65
2022/04/21 00:59:20;;;;;;;11.32;6.30;;;;;;;6.31;74.07;98221.53;5039041;28;20478;-65
2022/04/21 01:04:31;;;;;;;7.53;5.40;;;;;;;6.15;74.52;98210.97;5045508;28;20130;-65
2022/04/21 01:06:57;;;;;;;6.97;5.57;;;;;;;6.12;74.83;98230.16;5047617;28;20406;-64
2022/04/21 01:09:22;;;;;;;6.90;5.47;;;;;;;5.87;75.22;98198.25;5043348;28;20029;-64
2022/04/21 01:11:49;;;;;;;10.40;5.88;;;;;;;6.05;75.72;98224.75;5048948;28;20043;-64
2022/04/21 01:14:15;;;;;;;8.52;5.90;;;;;;;6.00;75.84;98224.47;5046537;28;20095;-65
2022/04/21 01:16:41;;;;;;;9.18;5.28;;;;;;;5.95;76.02;98223.34;5047640;28;20028;-65
2022/04/21 01:19:06;;;;;;;7.88;5.68;;;;;;;5.73;75.72;98196.41;5041350;28;20482;-64
2022/04/21 01:21:31;;;;;;;6.85;5.43;;;;;;;5.67;77.31;98221.31;5048844;28;20032;-64
2022/04/21 01:23:57;;;;;;;10.40;6.30;;;;;;;5.60;78.12;98220.41;5040748;28;20036;-65
2022/04/21 01:26:26;;;;;;;9.25;6.18;;;;;;;5.42;78.43;98204.66;5044250;28;20032;-64
2022/04/21 01:28:52;;;;;;;;;;;;;;;5.48;78.17;98218.19;5040806;28;20499;-65
2022/04/21 01:31:23;;;;;;;7.10;5.32;;;;;;;5.28;78.06;98206.34;5048098;28;19944;-64
2022/04/21 01:33:50;;;;;;;10.25;5.57;;;;;;;5.21;79.91;98219.66;5049066;28;20047;-64
2022/04/21 01:36:15;;;;;;;7.43;5.70;;;;;;;5.18;79.80;98217.31;5047691;28;20028;-67
2022/04/21 01:41:24;;;;;;;7.85;5.57;;;;;;;4.96;81.36;98199.47;5044377;28;20102;-65
2022/04/21 01:43:50;;;;;;;11.02;5.65;;;;;;;4.96;81.57;98199.47;5047934;28;20100;-65
2022/04/21 01:46:15;;;;;;;9.27;5.63;;;;;;;4.88;82.07;98197.69;5049042;28;20059;-65
2022/04/21 01:48:41;;;;;;;7.05;5.32;;;;;;;4.94;81.57;98205.00;5045147;28;20037;-65
2022/04/21 01:51:06;;;;;;;9.55;5.93;;;;;;;4.96;81.67;98194.94;5041328;28;20044;-65
2022/04/21 01:53:32;;;;;;;7.65;6.35;;;;;;;5.01;81.69;98216.66;5044266;28;20025;-65
2022/04/21 01:55:57;;;;;;;9.20;6.35;;;;;;;4.94;83.04;98213.03;5045261;28;20033;-65
2022/04/21 01:58:23;;;;;;;10.75;6.28;;;;;;;4.88;83.08;98213.78;5046472;28;20759;-65
2022/04/21 02:00:48;;;;;;;9.07;6.35;;;;;;;4.80;82.74;98205.81;5048402;28;20040;-65
2022/04/21 02:03:13;;;;;;;12.15;6.93;;;;;;;4.80;83.06;98213.84;5028701;28;20038;-66
2022/04/21 02:05:38;;;;;;;11.32;6.35;;;;;;;4.78;82.92;98207.84;5043342;28;20070;-66
2022/04/21 02:08:04;;;;;;;9.15;5.80;;;;;;;4.64;83.38;98214.84;5043196;28;20506;-66
2022/04/21 02:10:30;;;;;;;10.32;6.47;;;;;;;4.74;83.28;98209.19;5057033;28;20116;-66
2022/04/21 02:12:56;;;;;;;11.98;6.25;;;;;;;4.73;83.00;98194.97;5045467;28;20040;-66
2022/04/21 02:15:23;;;;;;;8.43;6.32;;;;;;;4.68;82.91;98199.22;5047089;28;20059;-66
2022/04/21 02:17:49;;;;;;;8.45;5.60;;;;;;;4.55;83.72;98200.66;5044224;28;20645;-66
2022/04/21 02:20:15;;;;;;;9.32;6.18;;;;;;;4.31;84.23;98184.78;5041926;28;20060;-66
2022/04/21 02:22:41;;;;;;;9.35;6.20;;;;;;;4.41;85.27;98190.72;5034551;28;20033;-66
2022/04/21 02:25:09;;;;;;;10.40;6.10;;;;;;;4.30;85.66;98173.25;5048393;28;20033;-66
2022/04/21 02:27:37;;;;;;;11.63;6.72;;;;;;;4.45;85.17;98183.97;5045596;28;20643;-66
2022/04/21 02:30:06;;;;;;;8.98;6.53;;;;;;;4.38;84.88;98146.41;5045145;28;20033;-66
2022/04/21 02:32:32;;;;;;;12.93;6.65;;;;;;;4.33;85.42;98138.06;5045619;28;20028;-66
2022/04/21 02:34:57;;;;;;;8.75;6.88;;;;;;;4.52;85.39;98176.91;5046389;28;20055;-66
2022/04/21 02:37:23;;;;;;;10.90;6.05;;;;;;;4.46;84.90;98182.16;5043439;28;20021;-66
2022/04/21 02:39:52;;;;;;;10.65;7.15;;;;;;;4.30;86.51;98151.00;5048021;28;20036;-66
2022/04/21 02:42:20;;;;;;;8.57;6.35;;;;;;;4.23;86.48;98147.34;5050828;28;20040;-66
2022/04/21 02:44:46;;;;;;;11.00;7.13;;;;;;;4.29;86.18;98174.22;5049862;28;20278;-66
2022/04/21 02:47:11;;;;;;;8.07;6.20;;;;;;;4.24;86.69;98181.13;5042011;28;20036;-66
2022/04/21 02:49:38;;;;;;;8.55;6.10;;;;;;;4.28;85.74;98172.56;5047002;28;20410;-66
2022/04/21 02:52:08;;;;;;;10.73;6.93;;;;;;;4.24;86.71;98178.47;5040902;28;20059;-66
2022/04/21 02:57:20;;;;;;;10.35;6.22;;;;;;;4.00;87.39;98145.50;5051871;28;20031;-66
2022/04/21 02:59:56;;;;;;;10.35;7.20;;;;;;;4.25;88.03;98164.91;5047657;28;20096;-66
2022/04/21 03:02:23;;;;;;;14.10;6.68;;;;;;;4.17;87.32;98157.78;5041695;28;20059;-66
2022/04/21 03:04:49;;;;;;;16.20;7.07;;;;;;;4.41;87.41;98157.75;5048875;28;20056;-68
2022/04/21 03:07:17;;;;;;;10.18;6.55;;;;;;;4.34;86.94;98168.34;5045895;28;20147;-69
2022/04/21 03:09:43;;;;;;;8.73;6.20;;;;;;;4.16;87.52;98160.59;5050082;28;20036;-66
2022/04/21 03:12:09;;;;;;;12.95;7.22;;;;;;;4.05;88.52;98169.88;5046989;28;20039;-66
2022/04/21 03:14:38;;;;;;;8.63;6.03;;;;;;;3.93;88.98;98176.69;5045713;28;20036;-66
2022/04/21 03:17:09;;;;;;;10.48;6.45;;;;;;;3.85;89.06;98174.03;5057335;28;20029;-66
2022/04/21 03:19:35;;;;;;;11.75;6.90;;;;;;;3.81;89.80;98172.72;5049657;28;20094;-67
2022/04/21 03:24:45;;;;;;;11.70;7.18;;;;;;;3.57;90.78;98120.19;5047070;28;20047;-70
2022/04/21 03:27:11;;;;;;;12.00;6.88;;;;;;;3.71;89.78;98130.13;5050303;28;20029;-72
2022/04/21 03:29:39;;;;;;;8.55;6.53;;;;;;;3.47;90.09;98104.34;5045297;28;20021;-71
2022/04/21 03:32:09;;;;;;;13.03;6.90;;;;;;;3.74;90.18;98161.88;5044734;28;20033;-70
2022/04/21 03:34:35;;;;;;;14.35;7.20;;;;;;;3.63;90.71;98136.34;5046450;28;20548;-71
2022/04/21 03:37:01;;;;;;;9.52;7.00;;;;;;;3.63;90.70;98133.69;5041331;28;21051;-73
2022/04/21 03:39:26;;;;;;;13.82;7.50;;;;;;;3.63;91.50;98147.06;5047871;28;20036;-71
2022/04/21 03:41:53;;;;;;;11.85;7.78;;;;;;;3.60;90.71;98154.59;5049358;28;20119;-71
2022/04/21 03:44:22;;;;;;;11.27;7.60;;;;;;;3.53;90.88;98170.50;5049957;28;20044;-70
2022/04/21 03:46:47;;;;;;;13.98;7.53;;;;;;;3.43;92.25;98168.06;5046551;28;20047;-72
2022/04/21 03:49:13;;;;;;;11.48;7.07;;;;;;;3.43;92.42;98153.84;5046691;28;20036;-74
2022/04/21 03:51:38;;;;;;;11.82;8.10;;;;;;;3.38;93.11;98141.00;5046345;28;20060;-71
2022/04/21 03:54:04;;;;;;;9.85;7.47;;;;;;;3.42;92.72;98152.19;5046318;28;20056;-72
2022/04/21 03:56:30;;;;;;;10.60;8.18;;;;;;;3.46;93.10;98164.22;5045741;28;20051;-72
2022/04/21 03:58:56;;;;;;;10.70;7.50;;;;;;;3.41;93.15;98135.31;5049783;28;20702;-74
2022/04/21 04:01:23;;;;;;;14.27;8.30;;;;;;;3.60;93.45;98165.31;5044056;28;20033;-74
2022/04/21 04:03:48;;;;;;;11.50;8.02;;;;;;;3.37;92.61;98142.00;5046934;28;20043;-71
2022/04/21 04:11:42;;;;;;;13.73;8.07;;;;;;;3.41;92.02;98155.88;5047245;28;20128;-66
2022/04/21 04:14:07;;;;;;;10.90;7.88;;;;;;;3.29;91.87;98153.56;5049477;28;20036;-66
2022/04/21 04:16:37;;;;;;;15.57;8.43;;;;;;;3.09;92.15;98136.25;5044986;28;20033;-71
2022/04/21 04:19:05;;;;;;;12.43;8.35;;;;;;;3.25;92.63;98154.94;5039046;28;20037;-70
2022/04/21 04:21:34;;;;;;;12.90;7.80;;;;;;;3.22;91.99;98135.72;5046761;28;20063;-70
2022/04/21 04:23:59;;;;;;;10.38;7.60;;;;;;;3.28;91.85;98154.56;5062490;28;20039;-69
2022/04/21 04:26:25;;;;;;;10.05;7.53;;;;;;;3.32;91.59;98135.50;5051332;28;20119;-71
2022/04/21 04:28:50;;;;;;;13.63;9.23;;;;;;;3.48;92.10;98149.66;5045184;28;20033;-70
2022/04/21 04:31:15;;;;;;;13.88;8.80;;;;;;;3.49;92.19;98154.00;5045966;28;20039;-73
2022/04/21 04:33:41;;;;;;;11.93;8.73;;;;;;;3.51;91.99;98133.25;5050897;28;20039;-70
2022/04/21 04:36:07;;;;;;;12.93;8.68;;;;;;;3.53;92.22;98154.47;5042915;28;20033;-70
2022/04/21 04:38:32;;;;;;;15.30;8.93;;;;;;;3.54;91.91;98140.09;5041343;28;20095;-69
2022/04/21 04:42:16;;;;;;;12.07;8.88;;;;;;;3.63;91.79;98144.38;5048730;28;20520;-70
2022/04/21 04:43:43;;;;;;;17.13;11.40;;;;;;;3.47;92.60;98120.41;5044251;28;20501;-71
2022/04/21 04:48:51;;;;;;;12.73;9.05;;;;;;;3.55;91.26;98131.06;5046254;28;20052;-66
2022/04/21 04:51:17;;;;;;;16.48;9.38;;;;;;;3.59;91.23;98134.19;5049425;28;20777;-71
2022/04/21 04:53:42;;;;;;;14.73;9.07;;;;;;;3.67;91.41;98135.00;5049567;28;20039;-69
2022/04/21 04:56:08;;;;;;;13.40;9.70;;;;;;;3.85;91.43;98141.91;5041881;28;20174;-72
2022/04/21 04:58:33;;;;;;;15.10;9.65;;;;;;;3.92;91.06;98137.53;5049276;28;20037;-72
2022/04/21 05:00:59;;;;;;;14.57;9.43;;;;;;;4.15;89.97;98158.97;5049774;28;20032;-72
2022/04/21 05:03:25;;;;;;;14.57;8.80;;;;;;;4.16;89.98;98145.38;5049592;28;20045;-71
2022/04/21 05:05:51;;;;;;;13.80;9.10;;;;;;;4.24;88.98;98140.97;5049487;28;20091;-71
2022/04/21 05:08:16;;;;;;;11.98;8.55;;;;;;;4.47;88.38;98154.34;5042756;28;20029;-71
2022/04/21 05:10:42;;;;;;;12.88;8.95;;;;;;;4.37;87.98;98125.13;5030009;28;20108;-71
2022/04/21 05:13:07;;;;;;;12.85;8.45;;;;;;;4.56;87.97;98145.25;5045849;28;20068;-71
2022/04/21 05:15:33;;;;;;;11.25;8.10;;;;;;;4.45;87.66;98109.00;5049586;28;20021;-71
2022/04/21 05:17:58;;;;;;;15.85;8.43;;;;;;;4.82;86.71;98151.03;5044841;28;20033;-71
2022/04/21 05:20:24;;;;;;;13.90;8.48;;;;;;;4.92;86.73;98150.75;5046647;28;20473;-71
2022/04/21 05:22:53;;;;;;;13.02;8.65;;;;;;;5.03;85.69;98146.75;5046362;28;20024;-71
2022/04/21 05:25:18;;;;;;;11.90;8.75;;;;;;;5.16;85.34;98146.13;5044802;28;20039;-68
2022/04/21 05:27:44;;;;;;;11.15;7.93;;;;;;;5.40;84.40;98142.34;5037387;28;20379;-68
2022/04/21 05:32:56;;;;;;;15.10;9.00;;;;;;;5.73;81.24;98123.94;5046746;28;20040;-68
2022/04/21 05:35:23;;;;;;;16.95;8.80;;;;;;;6.12;79.94;98145.06;5046649;28;20029;-68
2022/04/21 05:37:48;;;;;;;13.50;9.20;;;;;;;6.35;77.13;98142.19;5047258;28;20698;-63
2022/04/21 05:40:14;;;;;;;17.20;8.55;;;;;;;6.46;76.91;98148.91;5048492;28;20017;-66
2022/04/21 05:42:45;;;;;;;12.45;8.73;;;;;;;6.49;76.28;98145.00;5044869;28;20029;-66
2022/04/21 05:45:12;;;;;;;15.30;9.18;;;;;;;6.58;75.56;98157.28;5039308;28;20036;-67
2022/04/21 05:47:40;;;;;;;12.05;8.32;;;;;;;6.98;73.66;98142.28;5048107;28;20075;-63
2022/04/21 05:50:06;;;;;;;13.35;8.55;;;;;;;7.15;72.92;98150.88;5048317;28;20029;-62
2022/04/21 05:52:33;;;;;;;14.27;8.32;;;;;;;7.37;72.76;98157.00;5041391;28;20406;-63
2022/04/21 05:54:58;;;;;;;12.43;8.23;;;;;;;7.82;69.89;98143.13;5042986;28;20029;-69
2022/04/21 05:57:24;;;;;;;15.50;8.35;;;;;;;8.66;67.33;98145.38;5048082;28;20031;-69
2022/04/21 05:59:49;;;;;;;19.52;7.97;;;;;;;10.40;60.85;98126.72;5045875;28;20021;-65
2022/04/21 06:02:14;;;;;;;13.07;7.53;;;;;;;12.33;54.71;98143.66;5039346;28;20037;-64
2022/04/21 06:04:40;;;;;;;18.63;8.32;;;;;;;13.99;49.77;98132.56;5035408;28;20449;-65
2022/04/21 06:07:05;;;;;;;10.25;7.97;;;;;;;15.19;46.56;98132.50;5048012;28;20397;-65
2022/04/21 06:09:30;;;;;;;11.57;7.85;;;;;;;16.27;43.21;98124.66;5043601;28;20035;-65
2022/04/21 06:11:56;;;;;;;12.30;8.30;;;;;;;16.24;43.81;98119.69;5036528;28;20020;-68
2022/04/21 06:14:21;;;;;;;11.32;8.15;;;;;;;16.66;41.67;98108.09;5044171;28;20112;-65
2022/04/21 06:16:47;;;;;;;10.73;7.80;;;;;;;17.16;41.31;98123.28;5049610;28;20029;-65
2022/04/21 06:19:12;;;;;;;10.23;7.88;;;;;;;17.81;40.41;98112.19;5033454;28;20037;-65
2022/04/21 06:21:37;;;;;;;9.68;7.72;;;;;;;18.01;39.19;98117.72;5046741;28;20743;-66
2022/04/21 06:24:03;;;;;;;11.90;7.63;;;;;;;19.07;37.38;98100.91;5046343;28;20636;-63
2022/04/21 06:26:28;;;;;;;10.35;6.45;;;;;;;20.09;36.25;98111.59;5050030;28;20103;-66
2022/04/21 06:28:57;;;;;;;11.38;7.18;;;;;;;21.00;34.54;98098.38;5046686;28;20544;-65
2022/04/21 06:31:22;;;;;;;12.05;7.00;;;;;;;20.96;34.49;98100.06;5050684;28;20089;-66
2022/04/21 06:33:47;;;;;;;8.32;6.72;;;;;;;21.49;33.12;98110.31;5048016;28;20483;-66
2022/04/21 06:36:13;;;;;;;8.27;7.05;;;;;;;22.25;32.41;98103.88;5052777;28;20025;-61
2022/04/21 06:38:38;;;;;;;12.05;6.40;;;;;;;22.96;31.12;98110.28;5054158;28;20017;-61
2022/04/21 06:41:03;;;;;;;7.97;6.70;;;;;;;23.58;30.52;98109.19;5045773;28;20033;-66
2022/04/21 06:48:57;;;;;;;8.18;6.65;;;;;;;23.42;30.39;98105.88;5050284;28;20453;-66
2022/04/21 06:51:25;;;;;;;8.88;6.88;;;;;;;24.53;29.28;98097.56;5050469;28;20029;-66
2022/04/21 06:53:50;;;;;;;9.07;7.10;;;;;;;25.50;27.80;98084.88;5046880;28;20032;-66
2022/04/21 06:56:16;;;;;;;8.52;6.88;;;;;;;25.89;27.05;98083.28;5049379;28;20032;-67
2022/04/21 06:58:41;;;;;;;7.43;6.15;;;;;;;27.03;25.86;98103.63;5043317;28;20029;-67
2022/04/21 07:01:07;;;;;;;9.80;7.00;;;;;;;27.29;25.21;98082.19;5045289;28;20064;-66
2022/04/21 07:03:34;;;;;;;10.45;6.95;;;;;;;26.73;25.56;98094.34;5050640;28;20045;-67
2022/04/21 07:06:00;;;;;;;7.97;6.38;;;;;;;27.23;25.54;98093.81;5051504;28;20025;-67
2022/04/21 07:08:26;;;;;;;8.45;7.18;;;;;;;26.43;25.20;98080.25;5052068;28;20116;-67
2022/04/21 07:10:51;;;;;;;8.32;6.93;;;;;;;25.59;26.94;98084.91;5049356;28;20025;-66
2022/04/21 07:13:16;;;;;;;7.45;6.55;;;;;;;24.87;27.84;98072.94;5049482;28;20079;-67
2022/04/21 07:15:41;;;;;;;8.18;6.47;;;;;;;25.53;27.19;98094.50;5047853;28;20383;-62
2022/04/21 07:18:08;;;;;;;8.63;6.40;;;;;;;26.49;26.42;98080.91;5051395;28;20059;-65
2022/04/21 07:20:34;;;;;;;8.77;7.25;;;;;;;26.94;25.08;98094.50;5047717;28;20059;-67
2022/04/21 07:22:59;;;;;;;9.60;8.25;;;;;;;24.96;27.46;98080.47;5041309;28;20033;-76
2022/04/21 07:25:25;;;;;;;9.50;7.63;;;;;;;23.87;28.84;98089.59;5045054;28;20029;-66
2022/04/21 07:27:51;;;;;;;8.57;7.13;;;;;;;25.39;27.81;98083.53;5039967;28;20051;-69
2022/04/21 07:30:16;;;;;;;9.85;7.90;;;;;;;26.20;25.85;98096.25;5053117;28;20021;-64
2022/04/21 07:32:44;;;;;;;9.02;7.57;;;;;;;26.64;25.69;98094.34;5049064;28;20478;-64
2022/04/21 07:35:09;;;;;;;8.90;6.97;;;;;;;26.78;26.05;98100.53;5063969;28;20111;-64
2022/04/21 07:37:37;;;;;;;9.40;7.25;;;;;;;25.93;26.26;98091.75;5041312;28;20112;-65
2022/04/21 07:40:06;;;;;;;8.40;6.85;;;;;;;26.22;25.56;98071.75;5049223;28;20056;-70
2022/04/21 07:42:32;;;;;;;11.50;6.72;;;;;;;26.53;25.70;98088.28;5050938;28;20100;-66
2022/04/21 07:44:58;;;;;;;7.78;6.10;;;;;;;24.49;27.61;98102.91;5044690;28;20024;-64
2022/04/21 07:47:24;;;;;;;8.15;6.38;;;;;;;25.30;26.48;98088.22;5048720;28;20027;-64
2022/04/21 07:49:49;;;;;;;10.32;7.28;;;;;;;26.79;24.38;98091.06;5050529;28;20144;-65
2022/04/21 07:55:20;;;;;;;7.97;6.57;;;;;;;25.04;26.22;98072.22;5043340;28;20497;-65
2022/04/21 07:57:46;;;;;;;7.32;5.85;;;;;;;26.33;25.16;98088.88;5048591;28;20021;-65
2022/04/21 08:00:14;;;;;;;7.03;6.28;;;;;;;26.91;23.90;98081.25;5045954;28;20033;-65
2022/04/21 08:02:42;;;;;;;6.97;6.28;;;;;;;27.10;24.05;98076.16;5041857;28;20089;-65
2022/04/21 08:05:09;;;;;;;6.53;5.80;;;;;;;27.16;23.97;98062.94;5041560;28;20028;-65
2022/04/21 08:07:35;;;;;;;5.50;4.90;;;;;;;27.46;23.45;98041.63;5046069;28;20033;-72
2022/04/21 08:10:02;;;;;;;8.52;5.70;;;;;;;26.85;23.72;98084.22;5048909;28;20032;-68
2022/04/21 08:12:28;;;;;;;6.65;5.70;;;;;;;26.83;23.85;98078.19;5047991;28;20041;-68
2022/04/21 08:14:53;;;;;;;6.40;5.13;;;;;;;25.99;25.12;98073.81;5048613;28;20028;-68
2022/04/21 08:17:18;;;;;;;6.05;5.45;;;;;;;26.91;24.40;98047.94;5047079;28;20056;-68
2022/04/21 08:19:43;;;;;;;6.07;4.88;;;;;;;27.41;23.87;98067.63;5048656;28;20032;-66
2022/04/21 08:22:09;;;;;;;5.25;4.75;;;;;;;27.59;23.36;98065.59;5046803;28;20032;-70
2022/04/21 08:32:47;;;;;;;5.38;4.22;;;;;;;26.74;23.14;98060.69;5045961;28;20043;-70
2022/04/21 08:35:13;;;;;;;4.60;3.95;;;;;;;26.73;23.97;98055.50;5049954;28;20389;-69
2022/04/21 08:37:44;;;;;;;8.77;4.60;;;;;;;24.80;25.99;98049.63;5046872;28;20048;-66
2022/04/21 08:40:10;;;;;;;6.10;4.00;;;;;;;27.51;22.93;98055.34;5040756;28;20025;-64
2022/04/21 08:42:40;;;;;;;4.78;3.85;;;;;;;26.19;24.10;98039.13;5047146;28;20086;-66
2022/04/21 08:45:07;;;;;;;5.68;4.57;;;;;;;25.86;24.10;98045.13;5030536;28;20147;-66
2022/04/21 08:47:33;;;;;;;4.47;3.90;;;;;;;26.70;23.67;98048.66;5042454;28;20511;-65
2022/04/21 08:50:05;;;;;;;4.85;3.75;;;;;;;25.94;23.90;98040.75;5047771;28;20116;-66
2022/04/21 08:52:32;;;;;;;5.43;3.45;;;;;;;27.61;22.79;98041.03;5044199;28;20040;-66
2022/04/21 08:54:57;;;;;;;4.55;3.60;;;;;;;28.82;21.98;98042.22;5046376;28;20111;-66
2022/04/21 08:57:22;;;;;;;4.38;3.97;;;;;;;27.84;22.69;98051.94;5049476;28;20446;-66
2022/04/21 08:59:48;;;;;;;4.30;3.78;;;;;;;28.10;22.76;98033.09;5048571;28;20419;-66
2022/04/21 09:02:14;;;;;;;3.95;3.47;;;;;;;28.52;21.66;98026.78;5045288;28;20566;-69
2022/04/21 09:04:41;;;;;;;4.25;2.97;;;;;;;27.92;22.89;98042.72;5041341;28;20047;-65
2022/04/21 09:07:14;;;;;;;3.30;2.90;;;;;;;28.74;21.92;98043.13;5039713;28;20036;-65
2022/04/21 09:09:40;;;;;;;3.45;2.90;;;;;;;27.24;23.44;98040.69;5048930;28;20108;-65
2022/04/21 09:12:05;;;;;;;3.53;2.63;;;;;;;28.16;22.20;98022.59;5036096;28;20076;-65
2022/04/21 09:14:31;;;;;;;4.55;2.83;;;;;;;28.60;21.58;98040.59;5029476;28;20029;-65
2022/04/21 09:17:03;;;;;;;2.83;2.53;;;;;;;28.29;21.67;98035.41;5038878;28;20057;-65
2022/04/21 09:19:29;;;;;;;3.67;2.55;;;;;;;29.09;20.99;98028.84;5047269;28;20032;-65
2022/04/21 09:21:56;;;;;;;2.33;2.13;;;;;;;28.30;21.85;98031.50;5049080;28;20414;-65
2022/04/21 09:24:23;;;;;;;2.25;1.88;;;;;;;30.57;20.71;98035.22;5049876;28;20028;-64
2022/04/21 09:26:50;;;;;;;2.17;1.98;;;;;;;30.62;20.45;98021.00;5049927;28;20025;-64
2022/04/21 09:29:33;;;;;;;2.17;1.95;;;;;;;29.72;19.74;98028.59;5047330;28;20021;-64
2022/04/21 09:32:02;;;;;;;2.53;2.33;;;;;;;29.59;20.47;98036.13;5048087;28;20029;-64
2022/04/21 09:34:29;;;;;;;2.25;1.75;;;;;;;29.41;20.27;98029.94;5047317;28;20053;-64
2022/04/21 09:36:57;;;;;;;2.72;1.98;;;;;;;27.56;21.33;98032.09;5042942;28;20087;-66
2022/04/21 09:39:23;;;;;;;4.70;2.15;;;;;;;28.03;22.40;98026.44;5040073;28;20538;-64
2022/04/21 09:41:53;;;;;;;2.92;1.90;;;;;;;27.95;21.58;98005.91;5042726;28;20091;-64
2022/04/21 09:47:03;;;;;;;3.30;2.10;;;;;;;24.65;25.49;98021.22;5049090;28;20086;-64
2022/04/21 09:49:36;;;;;;;5.10;2.38;;;;;;;23.45;27.09;98016.09;5049526;28;20024;-64
2022/04/21 09:52:02;;;;;;;5.13;2.42;;;;;;;22.39;28.26;98001.97;5041379;28;20065;-64
2022/04/21 09:54:28;;;;;;;2.67;2.40;;;;;;;24.05;27.70;98002.97;5047902;28;20075;-64
2022/04/21 09:56:56;;;;;;;2.30;1.90;;;;;;;25.48;25.92;97992.19;5047596;28;20561;-64
2022/04/21 09:59:22;;;;;;;2.88;2.10;;;;;;;26.30;24.30;97995.25;5048974;28;20028;-65
2022/04/21 10:01:50;;;;;;;4.65;2.40;;;;;;;25.27;25.77;98003.03;5046433;28;20041;-65
2022/04/21 10:04:19;;;;;;;2.25;2.05;;;;;;;24.55;26.40;97993.81;5037932;28;20037;-65
2022/04/21 10:06:45;;;;;;;2.45;1.83;;;;;;;26.39;24.54;97994.13;5039785;28;20401;-65
2022/04/21 10:09:13;;;;;;;4.03;1.77;;;;;;;24.03;26.11;97976.78;5042549;28;20444;-65
2022/04/21 10:11:42;;;;;;;2.17;1.80;;;;;;;22.76;27.75;97995.56;5048878;28;20021;-65
2022/04/21 10:14:12;;;;;;;2.90;1.70;;;;;;;23.70;27.19;97999.00;5049032;28;20036;-65
2022/04/21 10:16:39;;;;;;;2.25;1.92;;;;;;;24.38;25.94;97991.69;5048832;28;20082;-65
2022/04/21 10:19:04;;;;;;;2.25;1.98;;;;;;;24.12;26.07;97960.28;5047345;28;20088;-65
2022/04/21 10:21:42;;;;;;;5.40;2.13;;;;;;;25.73;24.79;97985.91;5048086;28;20121;-65
2022/04/21 10:24:09;;;;;;;2.15;1.75;;;;;;;25.51;24.97;97978.50;5046173;28;20028;-65
2022/04/21 10:26:35;;;;;;;1.67;1.45;;;;;;;26.86;23.39;97966.50;5046083;28;20017;-65
2022/04/21 10:29:13;;;;;;;1.77;1.30;;;;;;;27.62;21.93;97958.50;5035979;28;20545;-65
2022/04/21 10:32:03;;;;;;;2.65;1.67;;;;;;;27.58;22.16;97963.09;5048808;28;20021;-65
2022/04/21 10:34:40;;;;;;;3.05;1.40;;;;;;;28.83;21.52;97962.28;5048041;28;20117;-65
2022/04/21 10:37:07;;;;;;;1.95;1.48;;;;;;;25.56;24.17;97963.69;5040988;28;20036;-65
2022/04/21 10:39:32;;;;;;;2.53;1.77;;;;;;;25.30;25.28;97958.06;5043443;28;20487;-66
2022/04/21 10:42:17;;;;;;;1.88;1.48;;;;;;;25.50;24.78;97956.69;5048339;28;20140;-65
2022/04/21 10:44:53;;;;;;;1.90;1.50;;;;;;;25.46;24.04;97950.13;5064518;28;20518;-65
2022/04/21 10:47:38;;;;;;;2.30;1.55;;;;;;;25.23;24.75;97946.63;5044722;28;20079;-64
2022/04/21 10:50:17;;;;;;;2.42;2.22;;;;;;;24.41;25.61;97946.00;5046740;28;20079;-65
2022/04/21 10:58:37;;;;;;;1.95;1.33;;;;;;;23.46;27.69;97933.00;5047921;28;20063;-66
2022/04/21 11:01:17;;;;;;;2.47;1.40;;;;;;;21.94;29.53;97932.69;5038139;28;20111;-65
2022/04/21 11:03:45;;;;;;;2.88;1.88;;;;;;;21.46;29.92;97921.81;5049076;28;20029;-66
2022/04/21 11:06:15;;;;;;;3.15;2.17;;;;;;;19.82;32.23;97926.16;5047847;28;20036;-65
2022/04/21 11:08:42;;;;;;;2.08;1.52;;;;;;;19.92;32.30;97915.09;5047124;28;20116;-65
2022/04/21 11:11:08;;;;;;;2.50;1.70;;;;;;;20.97;31.17;97915.50;5042689;28;20110;-65
2022/04/21 11:13:47;;;;;;;1.90;1.45;;;;;;;22.23;28.87;97927.00;5042034;28;20132;-65
2022/04/21 11:16:41;;;;;;;8.98;1.73;;;;;;;23.83;26.65;97909.81;5041186;28;20035;-66
2022/04/21 11:19:28;;;;;;;2.40;1.63;;;;;;;25.68;25.37;97918.75;5040524;28;20029;-66
2022/04/21 11:21:54;;;;;;;3.30;1.75;;;;;;;26.74;24.16;97918.38;5048395;28;20033;-66
2022/04/21 11:24:19;;;;;;;2.92;1.90;;;;;;;24.67;25.82;97913.81;5048144;28;20024;-67
2022/04/21 11:26:53;;;;;;;3.60;1.92;;;;;;;25.30;24.91;97914.59;5037790;28;20541;-66
2022/04/21 11:29:18;;;;;;;3.72;1.70;;;;;;;23.48;27.54;97905.91;5046958;28;20111;-65
2022/04/21 11:31:44;;;;;;;2.53;1.77;;;;;;;21.81;29.22;97912.22;5039454;28;20096;-66
2022/04/21 11:34:09;;;;;;;3.47;2.00;;;;;;;23.94;27.94;97910.38;5034824;28;20029;-66
2022/04/21 11:36:37;;;;;;;1.83;1.48;;;;;;;25.16;25.22;97900.06;5041572;28;20029;-66
2022/04/21 11:39:10;;;;;;;2.55;1.88;;;;;;;25.38;24.20;97898.31;5040443;28;20033;-66
2022/04/21 11:41:41;;;;;;;3.10;1.40;;;;;;;27.56;23.28;97896.75;5040795;28;20114;-66
2022/04/21 11:44:07;;;;;;;1.98;1.60;;;;;;;25.82;23.82;97874.25;5038602;28;20031;-67
2022/04/21 11:46:37;;;;;;;3.97;1.63;;;;;;;24.17;27.40;97889.09;5041194;28;20033;-66
2022/04/21 11:49:03;;;;;;;3.72;1.70;;;;;;;23.80;28.40;97896.63;5043179;28;20033;-66
2022/04/21 11:51:29;;;;;;;3.40;1.30;;;;;;;23.46;28.76;97877.78;5043678;28;20040;-66
2022/04/21 11:53:55;;;;;;;2.83;1.90;;;;;;;21.69;30.13;97883.50;5044014;28;20098;-66
2022/04/21 11:56:21;;;;;;;2.30;1.70;;;;;;;21.94;30.25;97891.38;5043424;28;20028;-65
2022/04/21 11:58:47;;;;;;;2.42;1.80;;;;;;;21.27;31.30;97902.47;5050844;28;20171;-66
2022/04/21 12:06:48;;;;;;;2.53;1.98;;;;;;;19.79;33.94;97858.13;5048252;28;20083;-71
2022/04/21 12:09:16;;;;;;;3.10;2.30;;;;;;;20.31;33.30;97878.53;5046284;28;20029;-77
2022/04/21 12:11:42;;;;;;;4.85;2.58;;;;;;;20.16;33.59;97872.38;5045057;28;20021;-73
2022/04/21 12:14:08;;;;;;;4.68;2.50;;;;;;;20.31;33.57;97861.25;5047667;28;20033;-73
2022/04/21 12:16:53;;;;;;;3.15;2.30;;;;;;;20.73;32.94;97876.22;5049216;28;20051;-73
2022/04/21 12:19:28;;;;;;;4.03;2.50;;;;;;;20.20;33.26;97873.41;5043694;28;20116;-72
2022/04/21 12:21:57;;;;;;;2.90;2.10;;;;;;;19.56;34.19;97867.03;5048527;28;20494;-72
2022/04/21 12:24:31;;;;;;;3.80;2.20;;;;;;;20.08;32.96;97873.81;5042646;28;20028;-68
2022/04/21 12:26:58;;;;;;;5.18;2.80;;;;;;;19.45;34.18;97847.09;5032084;28;20037;-71
2022/04/21 12:29:23;;;;;;;3.78;2.70;;;;;;;19.92;34.47;97859.38;5039945;28;20032;-70